createdAt,value
2022-08-09T00:02:02.746Z,1.00
2022-08-09T00:07:10.504Z,1.25
2022-08-09T00:12:15.541Z,1.20
2022-08-09T00:18:05.547Z,1.23
2022-08-09T00:22:47.463Z,2.40
2022-08-09T00:27:49.160Z,2.42
2022-08-09T00:32:50.885Z,1.90
2022-08-09T00:37:53.082Z,1.35
2022-08-09T00:44:26.029Z,1.20
2022-08-09T00:48:19.435Z,5.10
2022-08-09T00:53:24.345Z,2.95
2022-08-09T00:58:27.778Z,1.55
2022-08-09T01:03:54.852Z,1.58
2022-08-09T01:09:20.086Z,1.30
2022-08-09T01:14:35.038Z,1.20
2022-08-09T01:19:57.173Z,1.63
2022-08-09T01:25:19.060Z,1.40
2022-08-09T01:30:28.766Z,1.52
2022-08-09T01:36:07.185Z,1.90
2022-08-09T01:51:54.146Z,2.28
2022-08-09T01:56:57.891Z,2.42
2022-08-09T02:02:07.271Z,2.05
2022-08-09T02:08:35.903Z,3.03
2022-08-09T02:12:41.223Z,2.90
2022-08-09T02:18:09.724Z,2.63
2022-08-09T02:23:25.284Z,2.75
2022-08-09T02:28:35.530Z,2.00
2022-08-09T02:34:06.505Z,1.80
2022-08-09T02:39:06.305Z,1.67
2022-08-09T02:44:29.055Z,2.47
2022-08-09T02:49:38.702Z,1.70
2022-08-09T02:54:53.988Z,2.00
2022-08-09T03:00:21.441Z,1.67
2022-08-09T03:05:21.571Z,1.67
2022-08-09T03:10:25.852Z,1.55
2022-08-09T03:15:40.589Z,1.90
2022-08-09T03:20:52.226Z,1.85
2022-08-09T03:25:58.034Z,1.63
2022-08-09T03:31:04.468Z,3.67
2022-08-09T03:36:16.727Z,2.70
2022-08-09T03:41:19.015Z,1.90
2022-08-09T03:46:27.417Z,2.10
2022-08-09T03:51:55.032Z,1.65
2022-08-09T03:56:57.917Z,2.13
2022-08-09T04:02:00.613Z,2.05
2022-08-09T04:07:02.892Z,2.03
2022-08-09T04:12:11.955Z,2.03
2022-08-09T04:17:31.979Z,2.20
2022-08-09T04:22:35.312Z,2.22
2022-08-09T04:27:48.938Z,2.30
2022-08-09T04:32:52.026Z,2.42
2022-08-09T04:37:54.244Z,8.80
2022-08-09T04:42:56.818Z,8.65
2022-08-09T04:48:03.140Z,3.90
2022-08-09T04:53:11.518Z,2.90
2022-08-09T04:58:15.435Z,2.80
2022-08-09T05:03:40.996Z,2.45
2022-08-09T05:13:49.779Z,2.50
2022-08-09T05:18:57.485Z,3.67
2022-08-09T05:24:02.497Z,4.75
2022-08-09T05:29:06.578Z,5.32
2022-08-09T05:34:08.686Z,6.60
2022-08-09T05:39:28.322Z,5.57
2022-08-09T05:44:32.772Z,5.05
2022-08-09T05:50:24.135Z,5.72
2022-08-09T05:55:06.756Z,4.70
2022-08-09T06:00:10.492Z,4.68
2022-08-09T06:05:13.280Z,5.00
2022-08-09T06:10:15.783Z,4.15
2022-08-09T06:15:17.761Z,3.17
2022-08-09T06:20:19.910Z,2.40
2022-08-09T06:25:22.485Z,1.98
2022-08-09T06:30:24.383Z,2.10
2022-08-09T06:35:35.777Z,1.60
2022-08-09T06:40:48.589Z,2.05
2022-08-09T06:46:06.284Z,1.60
2022-08-09T06:51:14.770Z,1.80
2022-08-09T06:56:16.681Z,1.80
2022-08-09T07:01:24.031Z,1.92
2022-08-09T07:06:29.776Z,1.77
2022-08-09T07:11:34.180Z,1.70
2022-08-09T07:16:55.327Z,1.42
2022-08-09T07:21:59.817Z,1.50
2022-08-09T07:27:02.297Z,1.60
2022-08-09T07:32:04.763Z,1.77
2022-08-09T07:37:10.887Z,1.80
2022-08-09T07:42:18.033Z,1.65
2022-08-09T07:47:20.889Z,2.10
2022-08-09T07:52:24.161Z,1.85
2022-08-09T07:57:35.841Z,1.70
2022-08-09T08:02:42.614Z,1.65
2022-08-09T08:08:43.950Z,1.60
2022-08-09T08:18:14.524Z,1.75
2022-08-09T08:23:18.731Z,1.75
2022-08-09T08:28:26.028Z,1.67
2022-08-09T08:33:40.707Z,1.67
2022-08-09T08:38:55.006Z,1.60
2022-08-09T08:44:02.525Z,1.60
2022-08-09T08:49:07.522Z,1.45
2022-08-09T08:54:20.507Z,1.52
2022-08-09T08:59:40.950Z,1.50
2022-08-09T09:04:53.496Z,1.58
2022-08-09T09:10:02.444Z,1.45
2022-08-09T09:15:07.145Z,1.50
2022-08-09T09:20:15.464Z,1.50
2022-08-09T09:26:01.306Z,1.30
2022-08-09T09:31:00.167Z,1.40
2022-08-09T09:36:20.472Z,1.60
2022-08-09T09:41:33.083Z,1.45
2022-08-09T09:46:50.494Z,1.40
2022-08-09T09:52:02.052Z,1.58
2022-08-09T09:58:04.183Z,1.50
2022-08-09T10:02:46.535Z,1.52
2022-08-09T10:08:11.335Z,1.52
2022-08-09T10:13:10.782Z,1.70
2022-08-09T10:18:25.055Z,1.70
2022-08-09T10:23:28.898Z,1.45
2022-08-09T10:28:34.964Z,1.70
2022-08-09T10:34:08.619Z,1.70
2022-08-09T10:39:00.052Z,1.60
2022-08-09T10:44:03.970Z,1.20
2022-08-09T10:49:14.473Z,1.30
2022-08-09T10:54:25.340Z,1.25
2022-08-09T10:59:31.708Z,1.55
2022-08-09T11:05:25.277Z,1.35
2022-08-09T11:10:53.146Z,1.40
2022-08-09T11:16:34.862Z,1.40
2022-08-09T11:21:55.010Z,1.40
2022-08-09T11:28:02.712Z,1.25
2022-08-09T11:33:15.446Z,1.50
2022-08-09T11:38:21.998Z,1.10
2022-08-09T11:43:32.101Z,1.20
2022-08-09T11:48:52.113Z,1.33
2022-08-09T11:54:14.160Z,1.20
2022-08-09T11:59:29.944Z,1.38
2022-08-09T12:04:37.989Z,1.00
2022-08-09T12:09:50.591Z,1.77
2022-08-09T12:15:04.697Z,1.30
2022-08-09T12:20:22.354Z,1.20
2022-08-09T12:25:36.181Z,1.40
2022-08-09T12:30:40.437Z,1.08
2022-08-09T12:35:43.130Z,1.13
2022-08-09T12:40:51.803Z,1.10
2022-08-09T12:45:59.434Z,0.90
2022-08-09T12:51:03.942Z,1.20
2022-08-09T12:56:37.114Z,1.30
2022-08-09T13:01:38.937Z,1.20
2022-08-09T13:06:48.959Z,1.17
2022-08-09T13:12:02.150Z,1.23
2022-08-09T13:17:08.592Z,1.35
2022-08-09T13:22:38.181Z,1.20
2022-08-09T13:27:55.206Z,0.95
2022-08-09T13:32:57.933Z,1.00
2022-08-09T13:38:00.253Z,1.10
2022-08-09T13:43:05.117Z,1.13
2022-08-09T13:48:11.376Z,1.20
2022-08-09T13:53:16.744Z,1.10
2022-08-09T13:58:19.007Z,1.20
2022-08-09T14:04:03.313Z,1.40
2022-08-09T14:08:43.573Z,1.20
2022-08-09T14:14:24.720Z,0.98
2022-08-09T14:19:08.463Z,1.30
2022-08-09T14:24:22.153Z,1.35
2022-08-09T14:30:35.834Z,1.30
2022-08-09T14:34:56.907Z,1.15
2022-08-09T14:39:59.031Z,1.10
2022-08-09T14:46:40.083Z,1.27
2022-08-09T14:50:24.509Z,1.17
2022-08-09T14:55:29.074Z,1.08
2022-08-09T15:00:36.692Z,1.20
2022-08-09T15:05:39.619Z,1.80
2022-08-09T15:11:00.529Z,1.60
2022-08-09T15:16:03.945Z,1.38
2022-08-09T15:22:01.032Z,1.23
2022-08-09T15:26:32.049Z,1.30
2022-08-09T15:31:41.233Z,1.35
2022-08-09T15:36:48.096Z,1.25
2022-08-09T15:41:50.817Z,1.42
2022-08-09T15:46:52.637Z,1.33
2022-08-09T15:52:04.876Z,1.40
2022-08-09T15:57:08.630Z,1.20
2022-08-09T16:02:13.366Z,1.50
2022-08-09T16:07:15.574Z,1.50
2022-08-09T16:12:17.783Z,1.67
2022-08-09T16:17:22.117Z,1.88
2022-08-09T16:22:24.308Z,1.60
2022-08-09T16:27:29.945Z,1.80
2022-08-09T16:32:53.350Z,1.30
2022-08-09T16:37:56.821Z,1.83
2022-08-09T16:43:02.976Z,1.65
2022-08-09T16:48:39.161Z,1.60
2022-08-09T16:53:32.574Z,1.73
2022-08-09T16:58:37.118Z,1.15
2022-08-09T17:03:41.713Z,1.52
2022-08-09T17:08:59.910Z,1.92
2022-08-09T17:14:05.356Z,1.60
2022-08-09T17:19:07.106Z,1.20
2022-08-09T17:24:21.190Z,1.42
2022-08-09T17:29:38.022Z,1.55
2022-08-09T17:40:06.742Z,1.27
2022-08-09T17:45:26.837Z,1.23
2022-08-09T17:50:36.965Z,1.67
2022-08-09T17:55:49.605Z,1.40
2022-08-09T18:00:52.175Z,1.20
2022-08-09T18:05:57.991Z,1.10
2022-08-09T18:11:02.911Z,1.20
2022-08-09T18:16:08.849Z,1.50
2022-08-09T18:21:19.119Z,1.30
2022-08-09T18:26:25.964Z,1.30
2022-08-09T18:31:51.680Z,1.17
2022-08-09T18:36:50.511Z,1.35
2022-08-09T18:41:56.043Z,1.50
2022-08-09T18:47:07.996Z,1.33
2022-08-09T18:52:24.630Z,1.10
2022-08-09T18:57:42.689Z,1.50
2022-08-09T19:02:46.646Z,1.40
2022-08-09T19:08:03.814Z,1.52
2022-08-09T19:13:20.750Z,1.42
2022-08-09T19:18:33.080Z,1.55
2022-08-09T19:24:38.055Z,1.85
2022-08-09T19:29:09.735Z,1.60
2022-08-09T19:34:23.163Z,2.00
2022-08-09T19:39:43.900Z,1.60
2022-08-09T19:44:50.670Z,2.10
2022-08-09T19:50:08.599Z,2.38
2022-08-09T19:55:15.261Z,1.80
2022-08-09T20:00:17.734Z,1.88
2022-08-09T20:05:19.794Z,1.70
2022-08-09T20:10:28.091Z,2.78
2022-08-09T20:16:33.754Z,2.20
2022-08-09T20:26:04.549Z,1.90
2022-08-09T20:31:09.122Z,1.90
2022-08-09T20:36:12.470Z,2.10
2022-08-09T20:41:14.641Z,2.17
2022-08-09T20:46:41.995Z,7.40
2022-08-09T20:56:49.843Z,2.15
2022-08-09T21:01:55.733Z,1.55
2022-08-09T21:06:57.575Z,1.77
2022-08-09T21:18:21.118Z,2.22
2022-08-09T21:22:37.831Z,1.98
2022-08-09T21:27:52.270Z,1.95
2022-08-09T21:32:55.216Z,2.00
2022-08-09T21:38:00.488Z,2.67
2022-08-09T21:43:04.314Z,2.22
2022-08-09T21:48:08.101Z,2.13
2022-08-09T21:53:22.387Z,2.00
2022-08-09T21:58:31.701Z,1.80
2022-08-09T22:03:33.550Z,2.30
2022-08-09T22:08:38.548Z,3.28
2022-08-09T22:13:45.940Z,2.20
2022-08-09T22:18:53.930Z,2.72
2022-08-09T22:24:01.309Z,4.72
2022-08-09T22:29:06.803Z,2.85
2022-08-09T22:34:14.705Z,2.38
2022-08-09T22:39:20.777Z,2.13
2022-08-09T22:44:38.774Z,2.28
2022-08-09T22:49:48.026Z,2.80
2022-08-09T22:54:53.980Z,3.60
2022-08-09T22:59:59.332Z,6.25
2022-08-09T23:05:01.314Z,4.93
2022-08-09T23:10:07.888Z,5.13
2022-08-09T23:15:10.583Z,5.10
2022-08-09T23:20:12.350Z,4.00
2022-08-09T23:25:14.240Z,3.70
2022-08-09T23:30:17.133Z,2.80
2022-08-09T23:35:18.992Z,3.00
2022-08-09T23:40:20.782Z,3.53
2022-08-09T23:45:37.903Z,2.85
2022-08-09T23:50:40.338Z,2.92
2022-08-09T23:55:49.383Z,2.45
